Rockyford, South Dakota
Current Conditions -  °F | °C
As of 4:52 PM on Saturday 25 Oct 2014 (Local Time) from KIEN Reporting Station
Clear Clear  
Wind Chill: 68°   Ceiling: Unl
Heat Index: 68°   Visibility: 10mi
Dew Point: 41°   Wind: 9mph
Humidity: 37%   Direction: 120°ESE
Pressure: 29.99"   Gusts: NA
Location:  43.2863°N, 102.209°W
Report Text: KIEN 252252Z AUTO 12008KT 10SM CLR 20/05 A2999 RMK AO2 SLP157 T02000050
Loading
Personal Weather Stations






























Interactive Weather Map
Tropical Storm Tracking
New forecast layout! Learn more

10-Day Weather Forecast

Advertisements
Track Severe Weather on mobile